Murry, Mississippi
Current Conditions -  °F | °C
As of 12:35 PM on Thursday 30 Oct 2014 (Local Time) from KCRX Reporting Station
Clear Clear  
Wind Chill: 63°   Ceiling: Unl
Heat Index: 63°   Visibility: 10mi
Dew Point: 36°   Wind: 5mph
Humidity: 37%   Direction: 10°N
Pressure: 30.12"   Gusts: NA
Location:  34.7808°N, 88.8865°W
Report Text: KCRX 301735Z AUTO 01004KT 10SM CLR 17/02 A3012 RMK AO2
Loading
Personal Weather Stations






























Interactive Weather Map
Tropical Storm Tracking
New forecast layout! Learn more

10-Day Weather Forecast

Advertisements
Track Severe Weather on mobile